Weather at Cairo International Airport

Public forecast

Using degrees Celsius for public forecast. Weather courtesy of forecast.io.

Current aviation weather report (METAR) for Cairo International Airport

2024/05/25 12:00 (retrieved 16 minutes ago)

HECA 251200Z 31009KT 9999 FEW025 31/08 Q1012 NOSIG

Aviation forecast (TAF) for Cairo International Airport

2024/05/25 12:12 (retrieved 4 minutes ago)

TAF HECA 251100Z 2512/2618 32009KT CAVOK BECMG 2521/2524 VRB04KT